createdAt,value
2017-05-03T00:00:42.933Z,128
2017-05-03T00:01:42.878Z,112
2017-05-03T00:02:42.879Z,128
2017-05-03T00:03:42.909Z,112
2017-05-03T00:04:42.914Z,128
2017-05-03T00:05:42.894Z,112
2017-05-03T00:06:42.916Z,112
2017-05-03T00:07:42.898Z,112
2017-05-03T00:08:42.940Z,112
2017-05-03T00:09:42.921Z,112
2017-05-03T00:10:42.905Z,112
2017-05-03T00:11:42.891Z,112
2017-05-03T00:12:42.892Z,112
2017-05-03T00:13:42.989Z,112
2017-05-03T00:14:42.892Z,112
2017-05-03T00:15:42.896Z,112
2017-05-03T00:16:42.893Z,112
2017-05-03T00:17:42.894Z,128
2017-05-03T00:18:42.892Z,112
2017-05-03T00:19:42.890Z,112
2017-05-03T00:20:42.910Z,112
2017-05-03T00:21:42.906Z,112
2017-05-03T00:22:42.909Z,112
2017-05-03T00:23:42.922Z,112
2017-05-03T00:24:42.908Z,112
2017-05-03T00:25:42.908Z,112
2017-05-03T00:26:42.906Z,112
2017-05-03T00:27:42.911Z,112
2017-05-03T00:28:42.925Z,112
2017-05-03T00:29:42.912Z,112
2017-05-03T00:30:42.865Z,112
2017-05-03T00:31:42.822Z,112
2017-05-03T00:32:42.819Z,112
2017-05-03T00:33:42.820Z,112
2017-05-03T00:34:42.878Z,128
2017-05-03T00:35:42.824Z,112
2017-05-03T00:36:42.922Z,112
2017-05-03T00:37:42.854Z,112
2017-05-03T00:38:42.827Z,112
2017-05-03T00:39:42.831Z,112
2017-05-03T00:40:42.934Z,112
2017-05-03T00:41:42.937Z,112
2017-05-03T00:42:42.959Z,112
2017-05-03T00:43:42.919Z,112
2017-05-03T00:44:42.933Z,112
2017-05-03T00:45:42.924Z,112
2017-05-03T00:46:42.922Z,112
2017-05-03T00:47:42.933Z,112
2017-05-03T00:48:42.941Z,112
2017-05-03T00:49:42.959Z,112
2017-05-03T00:50:43.044Z,112
2017-05-03T00:51:42.946Z,112
2017-05-03T00:52:43.048Z,112
2017-05-03T00:53:42.960Z,112
2017-05-03T00:54:42.944Z,112
2017-05-03T00:55:43.043Z,112
2017-05-03T00:56:42.923Z,112
2017-05-03T00:57:42.945Z,112
2017-05-03T00:58:42.942Z,112
2017-05-03T00:59:42.964Z,112
2017-05-03T01:00:42.914Z,112
2017-05-03T01:01:42.918Z,112
2017-05-03T01:02:42.914Z,112
2017-05-03T01:03:42.913Z,112
2017-05-03T01:04:42.912Z,112
2017-05-03T01:05:42.915Z,112
2017-05-03T01:06:42.914Z,112
2017-05-03T01:07:42.921Z,112
2017-05-03T01:08:42.912Z,112
2017-05-03T01:09:42.914Z,112
2017-05-03T01:10:42.934Z,112
2017-05-03T01:11:42.932Z,112
2017-05-03T01:12:42.929Z,112
2017-05-03T01:13:42.934Z,112
2017-05-03T01:14:42.932Z,112
2017-05-03T01:15:42.932Z,112
2017-05-03T01:16:42.933Z,112
2017-05-03T01:17:42.947Z,112
2017-05-03T01:18:42.934Z,112
2017-05-03T01:19:42.937Z,112
2017-05-03T01:20:42.927Z,112
2017-05-03T01:21:42.923Z,112
2017-05-03T01:22:42.926Z,112
2017-05-03T01:23:42.921Z,112
2017-05-03T01:24:42.925Z,112
2017-05-03T01:25:42.925Z,112
2017-05-03T01:26:42.929Z,112
2017-05-03T01:27:42.927Z,112
2017-05-03T01:28:42.927Z,112
2017-05-03T01:29:42.931Z,112
2017-05-03T01:30:42.929Z,112
2017-05-03T01:31:42.930Z,112
2017-05-03T01:32:42.933Z,112
2017-05-03T01:33:42.929Z,112
2017-05-03T01:34:42.934Z,112
2017-05-03T01:35:42.926Z,112
2017-05-03T01:36:42.933Z,112
2017-05-03T01:37:42.934Z,112
2017-05-03T01:38:42.933Z,112
2017-05-03T01:39:42.936Z,112
2017-05-03T01:40:42.965Z,112
2017-05-03T01:41:42.858Z,112
2017-05-03T01:42:42.868Z,112
2017-05-03T01:43:42.858Z,112
2017-05-03T01:44:42.861Z,112
2017-05-03T01:45:42.863Z,112
2017-05-03T01:46:42.929Z,112
2017-05-03T01:47:42.923Z,112
2017-05-03T01:48:42.865Z,112
2017-05-03T01:49:42.859Z,112
2017-05-03T01:50:42.970Z,112
2017-05-03T01:51:42.953Z,112
2017-05-03T01:52:42.964Z,112
2017-05-03T01:53:42.961Z,112
2017-05-03T01:54:43.063Z,112
2017-05-03T01:55:42.951Z,112
2017-05-03T01:56:42.955Z,112
2017-05-03T01:57:42.956Z,112
2017-05-03T01:58:42.957Z,112
2017-05-03T01:59:42.956Z,112
2017-05-03T02:00:42.958Z,112
2017-05-03T02:01:42.972Z,112
2017-05-03T02:02:42.982Z,112
2017-05-03T02:03:42.996Z,112
2017-05-03T02:04:42.940Z,112
2017-05-03T02:05:43.003Z,112
2017-05-03T02:06:42.975Z,112
2017-05-03T02:07:42.979Z,112
2017-05-03T02:08:42.944Z,112
2017-05-03T02:09:42.978Z,112
2017-05-03T02:10:42.979Z,112
2017-05-03T02:11:42.873Z,112
2017-05-03T02:12:42.941Z,112
2017-05-03T02:13:42.931Z,112
2017-05-03T02:14:42.939Z,112
2017-05-03T02:15:42.873Z,112
2017-05-03T02:16:42.877Z,112
2017-05-03T02:17:42.876Z,112
2017-05-03T02:18:42.943Z,112
2017-05-03T02:19:42.931Z,112
2017-05-03T02:20:42.881Z,112
2017-05-03T02:21:42.978Z,112
2017-05-03T02:22:42.980Z,112
2017-05-03T02:23:42.982Z,112
2017-05-03T02:24:42.983Z,112
2017-05-03T02:25:42.988Z,112
2017-05-03T02:26:42.991Z,112
2017-05-03T02:27:42.989Z,112
2017-05-03T02:28:42.991Z,112
2017-05-03T02:29:42.953Z,112
2017-05-03T02:30:42.981Z,112
2017-05-03T02:31:42.956Z,112
2017-05-03T02:32:42.961Z,112
2017-05-03T02:33:42.955Z,112
2017-05-03T02:34:42.960Z,112
2017-05-03T02:35:42.960Z,112
2017-05-03T02:36:42.958Z,112
2017-05-03T02:37:42.959Z,112
2017-05-03T02:38:42.959Z,112
2017-05-03T02:39:42.966Z,112
2017-05-03T02:40:42.964Z,112
2017-05-03T02:41:42.999Z,112
2017-05-03T02:42:42.996Z,112
2017-05-03T02:43:42.962Z,112
2017-05-03T02:44:42.982Z,112
2017-05-03T02:45:42.999Z,112
2017-05-03T02:46:42.999Z,112
2017-05-03T02:47:42.981Z,112
2017-05-03T02:48:42.991Z,112
2017-05-03T02:49:42.982Z,112
2017-05-03T02:50:43.024Z,112
2017-05-03T02:51:42.965Z,112
2017-05-03T02:52:43.001Z,112
2017-05-03T02:53:42.994Z,112
2017-05-03T02:54:43.006Z,112
2017-05-03T02:55:43.002Z,112
2017-05-03T02:56:43.023Z,112
2017-05-03T02:57:42.972Z,112
2017-05-03T02:58:43.108Z,112
2017-05-03T02:59:43.029Z,112
2017-05-03T03:00:43.004Z,112
2017-05-03T03:01:43.008Z,112
2017-05-03T03:02:43.004Z,112
2017-05-03T03:03:43.009Z,112
2017-05-03T03:04:43.009Z,112
2017-05-03T03:05:43.004Z,112
2017-05-03T03:06:43.003Z,112
2017-05-03T03:07:43.087Z,112
2017-05-03T03:08:43.119Z,112
2017-05-03T03:09:42.987Z,112
2017-05-03T03:10:42.968Z,112
2017-05-03T03:11:42.900Z,112
2017-05-03T03:12:42.900Z,112
2017-05-03T03:13:42.905Z,112
2017-05-03T03:14:42.902Z,112
2017-05-03T03:15:42.906Z,112
2017-05-03T03:16:42.901Z,112
2017-05-03T03:17:42.961Z,112
2017-05-03T03:18:42.964Z,112
2017-05-03T03:19:42.914Z,112
2017-05-03T03:20:42.901Z,112
2017-05-03T03:21:43.013Z,112
2017-05-03T03:22:43.032Z,112
2017-05-03T03:23:43.021Z,112
2017-05-03T03:24:42.982Z,112
2017-05-03T03:25:43.026Z,112
2017-05-03T03:26:42.977Z,112
2017-05-03T03:27:43.017Z,112
2017-05-03T03:28:43.016Z,112
2017-05-03T03:29:42.981Z,112
2017-05-03T03:30:43.037Z,112
2017-05-03T03:31:43.224Z,112
2017-05-03T03:32:43.022Z,112
2017-05-03T03:33:43.020Z,112
2017-05-03T03:34:43.019Z,112
2017-05-03T03:35:43.020Z,112
2017-05-03T03:36:43.024Z,112
2017-05-03T03:37:43.020Z,112
2017-05-03T03:38:43.023Z,112
2017-05-03T03:39:43.019Z,112
2017-05-03T03:40:43.027Z,112
2017-05-03T03:41:43.032Z,112
2017-05-03T03:42:43.026Z,112
2017-05-03T03:43:43.025Z,112
2017-05-03T03:44:42.992Z,112
2017-05-03T03:45:43.028Z,112
2017-05-03T03:46:43.145Z,112
2017-05-03T03:47:43.048Z,112
2017-05-03T03:48:43.010Z,112
2017-05-03T03:49:43.031Z,112
2017-05-03T03:50:43.120Z,112
2017-05-03T03:51:43.050Z,112
2017-05-03T03:52:42.998Z,112
2017-05-03T03:53:43.057Z,112
2017-05-03T03:54:43.039Z,112
2017-05-03T03:55:43.034Z,112
2017-05-03T03:56:43.034Z,112
2017-05-03T03:57:43.030Z,112
2017-05-03T03:58:43.137Z,112
2017-05-03T03:59:43.005Z,112
2017-05-03T04:00:43.058Z,112
2017-05-03T04:01:43.017Z,112
2017-05-03T04:02:43.094Z,112
2017-05-03T04:03:43.019Z,112
2017-05-03T04:04:43.016Z,112
2017-05-03T04:05:43.018Z,112
2017-05-03T04:06:43.018Z,112
2017-05-03T04:07:43.013Z,112
2017-05-03T04:08:43.015Z,112
2017-05-03T04:09:43.017Z,112
2017-05-03T04:10:43.013Z,112
2017-05-03T04:11:43.145Z,112
2017-05-03T04:12:43.040Z,112
2017-05-03T04:13:43.040Z,112
2017-05-03T04:14:43.042Z,112
2017-05-03T04:15:43.040Z,112
2017-05-03T04:16:43.004Z,112
2017-05-03T04:17:43.057Z,112
2017-05-03T04:18:43.051Z,112
2017-05-03T04:19:43.038Z,112
2017-05-03T04:20:43.038Z,112
2017-05-03T04:21:42.978Z,112
2017-05-03T04:22:42.999Z,112
2017-05-03T04:23:42.934Z,112
2017-05-03T04:24:42.980Z,112
2017-05-03T04:25:43.036Z,112
2017-05-03T04:26:43.004Z,112
2017-05-03T04:27:42.943Z,112
2017-05-03T04:28:42.936Z,112
2017-05-03T04:29:42.935Z,112
2017-05-03T04:30:42.937Z,112
2017-05-03T04:31:43.010Z,112
2017-05-03T04:32:43.014Z,112
2017-05-03T04:33:43.012Z,112
2017-05-03T04:34:43.013Z,112
2017-05-03T04:35:43.016Z,112
2017-05-03T04:36:43.019Z,112
2017-05-03T04:37:43.021Z,112
2017-05-03T04:38:43.021Z,112
2017-05-03T04:39:43.021Z,112
2017-05-03T04:40:43.023Z,112
2017-05-03T04:41:43.031Z,112
2017-05-03T04:42:43.031Z,112
2017-05-03T04:43:43.029Z,112
2017-05-03T04:44:43.032Z,112
2017-05-03T04:45:43.033Z,112
2017-05-03T04:46:43.110Z,112
2017-05-03T04:47:43.033Z,112
2017-05-03T04:48:43.074Z,112
2017-05-03T04:49:43.036Z,112
2017-05-03T04:50:43.035Z,112
2017-05-03T04:51:43.057Z,112
2017-05-03T04:52:43.062Z,112
2017-05-03T04:53:43.056Z,112
2017-05-03T04:54:43.051Z,112
2017-05-03T04:55:43.058Z,112
2017-05-03T04:56:43.163Z,112
2017-05-03T04:57:43.057Z,112
2017-05-03T04:58:43.060Z,112
2017-05-03T04:59:43.057Z,112
2017-05-03T05:00:43.078Z,112
2017-05-03T05:01:43.042Z,112
2017-05-03T05:02:43.128Z,112
2017-05-03T05:03:43.027Z,112
2017-05-03T05:04:43.031Z,112
2017-05-03T05:05:43.032Z,112
2017-05-03T05:06:43.030Z,112
2017-05-03T05:07:43.034Z,112
2017-05-03T05:08:43.029Z,112
2017-05-03T05:09:43.033Z,112
2017-05-03T05:10:43.032Z,112
2017-05-03T05:11:43.031Z,112
2017-05-03T05:12:43.038Z,112
2017-05-03T05:13:43.032Z,112
2017-05-03T05:14:43.033Z,112
2017-05-03T05:15:43.032Z,112
2017-05-03T05:16:43.036Z,112
2017-05-03T05:17:43.039Z,112
2017-05-03T05:18:43.038Z,112
2017-05-03T05:19:43.038Z,96
2017-05-03T05:20:43.038Z,96
2017-05-03T05:21:43.039Z,112
2017-05-03T05:22:43.069Z,112
2017-05-03T05:23:43.092Z,112
2017-05-03T05:24:43.065Z,112
2017-05-03T05:25:43.093Z,96
2017-05-03T05:26:43.072Z,96
2017-05-03T05:27:43.097Z,96
2017-05-03T05:28:43.073Z,96
2017-05-03T05:29:43.077Z,96
2017-05-03T05:30:43.071Z,96
2017-05-03T05:31:43.074Z,96
2017-05-03T05:32:43.060Z,96
2017-05-03T05:33:43.066Z,96
2017-05-03T05:34:43.060Z,96
2017-05-03T05:35:43.057Z,96
2017-05-03T05:36:43.057Z,96
2017-05-03T05:37:43.061Z,96
2017-05-03T05:38:43.064Z,96
2017-05-03T05:39:43.066Z,96
2017-05-03T05:40:43.068Z,96
2017-05-03T05:41:43.081Z,96
2017-05-03T05:42:42.960Z,96
2017-05-03T05:43:42.967Z,96
2017-05-03T05:44:43.021Z,96
2017-05-03T05:45:43.029Z,96
2017-05-03T05:46:43.118Z,96
2017-05-03T05:47:43.053Z,96
2017-05-03T05:48:43.056Z,96
2017-05-03T05:49:43.045Z,96
2017-05-03T05:50:43.008Z,96
2017-05-03T05:51:42.958Z,96
2017-05-03T05:52:43.070Z,96
2017-05-03T05:53:43.072Z,96
2017-05-03T05:54:43.086Z,96
2017-05-03T05:55:43.073Z,96
2017-05-03T05:56:43.067Z,96
2017-05-03T05:57:43.075Z,96
2017-05-03T05:58:43.070Z,96
2017-05-03T05:59:43.071Z,96
2017-05-03T06:00:43.070Z,96
2017-05-03T06:01:43.073Z,96
2017-05-03T06:02:43.123Z,96
2017-05-03T06:03:43.075Z,96
2017-05-03T06:04:43.076Z,80
2017-05-03T06:05:43.097Z,80
2017-05-03T06:06:43.076Z,80
2017-05-03T06:07:43.050Z,80
2017-05-03T06:08:43.079Z,80
2017-05-03T06:09:43.081Z,80
2017-05-03T06:10:43.077Z,80
2017-05-03T06:11:43.081Z,80
2017-05-03T06:12:43.099Z,80
2017-05-03T06:13:43.097Z,80
2017-05-03T06:14:43.130Z,80
2017-05-03T06:15:43.077Z,80
2017-05-03T06:16:43.060Z,80
2017-05-03T06:17:43.061Z,80
2017-05-03T06:18:43.121Z,80
2017-05-03T06:19:43.101Z,80
2017-05-03T06:20:43.083Z,80
2017-05-03T06:21:43.082Z,80
2017-05-03T06:22:43.100Z,80
2017-05-03T06:23:43.109Z,80
2017-05-03T06:24:43.066Z,80
2017-05-03T06:25:43.108Z,80
2017-05-03T06:26:43.100Z,80
2017-05-03T06:27:43.104Z,80
2017-05-03T06:28:43.104Z,80
2017-05-03T06:29:43.127Z,80
2017-05-03T06:30:43.111Z,80
2017-05-03T06:31:43.083Z,80
2017-05-03T06:32:43.134Z,80
2017-05-03T06:33:43.101Z,80
2017-05-03T06:34:43.092Z,80
2017-05-03T06:35:43.111Z,80
2017-05-03T06:36:43.089Z,80
2017-05-03T06:37:43.111Z,80
2017-05-03T06:38:43.135Z,80
2017-05-03T06:39:43.117Z,80
2017-05-03T06:40:43.114Z,80
2017-05-03T06:41:43.216Z,80
2017-05-03T06:42:43.220Z,80
2017-05-03T06:43:43.114Z,80
2017-05-03T06:44:43.220Z,80
2017-05-03T06:45:43.136Z,80
2017-05-03T06:46:43.120Z,80
2017-05-03T06:47:43.222Z,80
2017-05-03T06:48:43.122Z,80
2017-05-03T06:49:43.112Z,80
2017-05-03T06:50:43.115Z,80
2017-05-03T06:51:43.225Z,80
2017-05-03T06:52:43.115Z,80
2017-05-03T06:53:43.118Z,80
2017-05-03T06:54:43.125Z,80
2017-05-03T06:55:43.084Z,80
2017-05-03T06:56:43.081Z,80
2017-05-03T06:57:43.099Z,80
2017-05-03T06:58:43.123Z,80
2017-05-03T06:59:43.216Z,64
2017-05-03T07:00:43.121Z,64
2017-05-03T07:01:43.125Z,64
2017-05-03T07:02:43.124Z,64
2017-05-03T07:03:43.145Z,64
2017-05-03T07:04:43.130Z,64
2017-05-03T07:05:43.157Z,64
2017-05-03T07:06:43.122Z,64
2017-05-03T07:07:43.226Z,64
2017-05-03T07:08:43.086Z,64
2017-05-03T07:09:43.147Z,64
2017-05-03T07:10:43.129Z,64
2017-05-03T07:11:43.126Z,64
2017-05-03T07:12:43.113Z,64
2017-05-03T07:13:43.115Z,64
2017-05-03T07:14:43.115Z,64
2017-05-03T07:15:43.119Z,64
2017-05-03T07:16:43.114Z,64
2017-05-03T07:17:43.116Z,64
2017-05-03T07:18:43.127Z,64
2017-05-03T07:19:43.116Z,64
2017-05-03T07:20:43.117Z,64
2017-05-03T07:21:43.118Z,64
2017-05-03T07:22:43.129Z,64
2017-05-03T07:23:43.118Z,64
2017-05-03T07:24:43.100Z,64
2017-05-03T07:25:43.136Z,64
2017-05-03T07:26:43.158Z,64
2017-05-03T07:27:43.132Z,64
2017-05-03T07:28:43.131Z,64
2017-05-03T07:29:43.134Z,64
2017-05-03T07:30:43.136Z,64
2017-05-03T07:31:43.143Z,64
2017-05-03T07:32:43.121Z,64
2017-05-03T07:33:43.120Z,64
2017-05-03T07:34:43.128Z,64
2017-05-03T07:35:43.125Z,64
2017-05-03T07:36:43.122Z,64
2017-05-03T07:37:43.124Z,64
2017-05-03T07:38:43.117Z,64
2017-05-03T07:39:43.125Z,64
2017-05-03T07:40:43.129Z,64
2017-05-03T07:41:43.127Z,64
2017-05-03T07:42:43.084Z,64
2017-05-03T07:43:43.037Z,64
2017-05-03T07:44:43.096Z,64
2017-05-03T07:45:43.151Z,64
2017-05-03T07:46:43.202Z,64
2017-05-03T07:47:43.031Z,64
2017-05-03T07:48:43.038Z,64
2017-05-03T07:49:43.100Z,64
2017-05-03T07:50:43.100Z,64
2017-05-03T07:51:43.142Z,64
2017-05-03T07:52:43.119Z,64
2017-05-03T07:53:43.118Z,64
2017-05-03T07:54:43.122Z,64
2017-05-03T07:55:43.120Z,64
2017-05-03T07:56:43.118Z,64
2017-05-03T07:57:43.120Z,64
2017-05-03T07:58:43.119Z,64
2017-05-03T07:59:43.119Z,64
2017-05-03T08:00:43.121Z,64
2017-05-03T08:01:43.118Z,64
2017-05-03T08:02:43.151Z,64
2017-05-03T08:03:43.176Z,64
2017-05-03T08:04:43.143Z,64
2017-05-03T08:05:43.158Z,64
2017-05-03T08:06:43.115Z,64
2017-05-03T08:07:43.157Z,64
2017-05-03T08:08:43.159Z,64
2017-05-03T08:09:43.179Z,64
2017-05-03T08:10:43.153Z,64
2017-05-03T08:11:43.157Z,64
2017-05-03T08:12:43.158Z,64
2017-05-03T08:13:43.163Z,64
2017-05-03T08:14:43.144Z,64
2017-05-03T08:15:43.160Z,64
2017-05-03T08:16:43.186Z,64
2017-05-03T08:17:43.161Z,64
2017-05-03T08:18:43.145Z,64
2017-05-03T08:19:43.169Z,64
2017-05-03T08:20:43.165Z,64
2017-05-03T08:21:43.155Z,48
2017-05-03T08:22:43.368Z,64
2017-05-03T08:23:43.166Z,64
2017-05-03T08:24:43.166Z,64
2017-05-03T08:25:43.245Z,64
2017-05-03T08:26:43.187Z,48
2017-05-03T08:27:43.150Z,48
2017-05-03T08:28:43.166Z,48
2017-05-03T08:29:43.332Z,48
2017-05-03T08:30:43.167Z,48
2017-05-03T08:31:43.147Z,48
2017-05-03T08:32:43.166Z,48
2017-05-03T08:33:43.192Z,48
2017-05-03T08:34:43.164Z,48
2017-05-03T08:35:43.166Z,48
2017-05-03T08:36:43.276Z,48
2017-05-03T08:37:43.168Z,48
2017-05-03T08:38:43.157Z,48
2017-05-03T08:39:43.172Z,48
2017-05-03T08:40:43.174Z,48
2017-05-03T08:41:43.139Z,48
2017-05-03T08:42:43.201Z,48
2017-05-03T08:43:43.176Z,48
2017-05-03T08:44:43.174Z,48
2017-05-03T08:45:43.169Z,48
2017-05-03T08:46:43.175Z,48
2017-05-03T08:47:43.176Z,48
2017-05-03T08:48:43.172Z,48
2017-05-03T08:49:43.196Z,48
2017-05-03T08:50:43.177Z,48
2017-05-03T08:51:43.180Z,48
2017-05-03T08:52:43.166Z,48
2017-05-03T08:53:43.160Z,48
2017-05-03T08:54:43.169Z,48
2017-05-03T08:55:43.163Z,48
2017-05-03T08:56:43.166Z,48
2017-05-03T08:57:43.159Z,48
2017-05-03T08:58:43.163Z,48
2017-05-03T08:59:43.162Z,48
2017-05-03T09:00:43.241Z,48
2017-05-03T09:01:43.165Z,48
2017-05-03T09:02:43.164Z,48
2017-05-03T09:03:43.186Z,48
2017-05-03T09:04:43.143Z,48
2017-05-03T09:05:43.184Z,48
2017-05-03T09:06:43.180Z,48
2017-05-03T09:07:43.187Z,48
2017-05-03T09:08:43.186Z,48
2017-05-03T09:09:43.153Z,48
2017-05-03T09:10:43.186Z,48
2017-05-03T09:11:43.193Z,48
2017-05-03T09:12:43.292Z,48
2017-05-03T09:13:43.179Z,48
2017-05-03T09:14:43.191Z,48
2017-05-03T09:15:43.188Z,48
2017-05-03T09:16:43.177Z,48
2017-05-03T09:17:43.189Z,48
2017-05-03T09:18:43.192Z,48
2017-05-03T09:19:43.191Z,48
2017-05-03T09:20:43.294Z,48
2017-05-03T09:21:43.169Z,48
2017-05-03T09:22:43.185Z,48
2017-05-03T09:23:43.200Z,48
2017-05-03T09:24:43.157Z,48
2017-05-03T09:25:43.302Z,48
2017-05-03T09:26:43.196Z,48
2017-05-03T09:27:43.199Z,48
2017-05-03T09:28:43.176Z,48
2017-05-03T09:29:43.195Z,48
2017-05-03T09:30:43.197Z,48
2017-05-03T09:31:43.228Z,48
2017-05-03T09:32:43.156Z,48
2017-05-03T09:33:43.180Z,48
2017-05-03T09:34:43.156Z,48
2017-05-03T09:35:43.180Z,48
2017-05-03T09:36:43.183Z,48
2017-05-03T09:37:43.181Z,48
2017-05-03T09:38:43.185Z,48
2017-05-03T09:39:43.184Z,48
2017-05-03T09:40:43.183Z,48
2017-05-03T09:41:43.184Z,48
2017-05-03T09:42:43.261Z,48
2017-05-03T09:43:43.143Z,32
2017-05-03T09:44:43.143Z,48
2017-05-03T09:45:43.159Z,48
2017-05-03T09:46:43.103Z,48
2017-05-03T09:47:43.148Z,32
2017-05-03T09:48:43.104Z,32
2017-05-03T09:49:43.105Z,32
2017-05-03T09:50:43.152Z,32
2017-05-03T09:51:43.106Z,48
2017-05-03T09:52:43.193Z,48
2017-05-03T09:53:43.190Z,32
2017-05-03T09:54:43.193Z,48
2017-05-03T09:55:43.190Z,32
2017-05-03T09:56:43.225Z,32
2017-05-03T09:57:43.279Z,32
2017-05-03T09:58:43.200Z,32
2017-05-03T09:59:43.199Z,32
2017-05-03T10:00:43.202Z,32
2017-05-03T10:01:43.194Z,32
2017-05-03T10:02:43.198Z,32
2017-05-03T10:03:43.208Z,32
2017-05-03T10:04:43.315Z,32
2017-05-03T10:05:43.316Z,32
2017-05-03T10:06:43.181Z,32
2017-05-03T10:07:43.221Z,32
2017-05-03T10:08:43.219Z,32
2017-05-03T10:09:43.237Z,32
2017-05-03T10:10:43.181Z,32
2017-05-03T10:11:43.193Z,32
2017-05-03T10:12:43.219Z,32
2017-05-03T10:13:43.203Z,32
2017-05-03T10:14:43.201Z,32
2017-05-03T10:15:43.202Z,32
2017-05-03T10:16:43.198Z,32
2017-05-03T10:17:43.415Z,32
2017-05-03T10:18:43.205Z,32
2017-05-03T10:19:43.220Z,32
2017-05-03T10:20:43.238Z,32
2017-05-03T10:21:43.205Z,32
2017-05-03T10:22:43.215Z,32
2017-05-03T10:23:43.098Z,32
2017-05-03T10:24:43.119Z,32
2017-05-03T10:25:43.207Z,32
2017-05-03T10:26:43.112Z,32
2017-05-03T10:27:43.118Z,32
2017-05-03T10:28:43.142Z,32
2017-05-03T10:29:43.163Z,32
2017-05-03T10:30:43.145Z,32
2017-05-03T10:31:43.170Z,32
2017-05-03T10:32:43.164Z,32
2017-05-03T10:33:43.332Z,32
2017-05-03T10:34:43.226Z,32
2017-05-03T10:35:43.230Z,32
2017-05-03T10:36:43.235Z,32
2017-05-03T10:37:43.196Z,32
2017-05-03T10:38:43.225Z,32
2017-05-03T10:39:43.228Z,32
2017-05-03T10:40:43.194Z,32
2017-05-03T10:41:43.256Z,32
2017-05-03T10:42:43.195Z,32
2017-05-03T10:43:43.203Z,32
2017-05-03T10:44:43.205Z,32
2017-05-03T10:45:43.203Z,32
2017-05-03T10:46:43.204Z,32
2017-05-03T10:47:43.210Z,32
2017-05-03T10:48:43.202Z,32
2017-05-03T10:49:43.208Z,32
2017-05-03T10:50:43.202Z,32
2017-05-03T10:51:43.215Z,32
2017-05-03T10:52:43.201Z,32
2017-05-03T10:53:43.219Z,32
2017-05-03T10:54:43.217Z,32
2017-05-03T10:55:43.217Z,32
2017-05-03T10:56:43.218Z,32
2017-05-03T10:57:43.218Z,32
2017-05-03T10:58:43.219Z,32
2017-05-03T10:59:43.220Z,32
2017-05-03T11:00:43.220Z,32
2017-05-03T11:01:43.234Z,32
2017-05-03T11:02:43.223Z,32
2017-05-03T11:03:43.222Z,32
2017-05-03T11:04:43.225Z,32
2017-05-03T11:05:43.223Z,32
2017-05-03T11:06:43.222Z,32
2017-05-03T11:07:43.230Z,32
2017-05-03T11:08:43.221Z,32
2017-05-03T11:09:43.233Z,32
2017-05-03T11:10:43.228Z,32
2017-05-03T11:11:43.224Z,32
2017-05-03T11:12:43.228Z,32
2017-05-03T11:13:43.228Z,32
2017-05-03T11:14:43.248Z,32
2017-05-03T11:15:43.245Z,32
2017-05-03T11:16:43.248Z,32
2017-05-03T11:17:43.246Z,32
2017-05-03T11:18:43.245Z,32
2017-05-03T11:19:43.245Z,32
2017-05-03T11:20:43.247Z,32
2017-05-03T11:21:43.245Z,32
2017-05-03T11:22:43.247Z,32
2017-05-03T11:23:43.233Z,32
2017-05-03T11:24:43.358Z,16
2017-05-03T11:25:43.255Z,16
2017-05-03T11:26:43.256Z,16
2017-05-03T11:27:43.254Z,16
2017-05-03T11:28:43.361Z,32
2017-05-03T11:29:43.262Z,16
2017-05-03T11:30:43.364Z,16
2017-05-03T11:31:43.258Z,16
2017-05-03T11:32:43.281Z,16
2017-05-03T11:33:43.254Z,16
2017-05-03T11:34:43.234Z,16
2017-05-03T11:35:43.253Z,16
2017-05-03T11:36:43.256Z,16
2017-05-03T11:37:43.256Z,16
2017-05-03T11:38:43.242Z,16
2017-05-03T11:39:43.256Z,16
2017-05-03T11:40:43.261Z,16
2017-05-03T11:41:43.260Z,16
2017-05-03T11:42:43.283Z,16
2017-05-03T11:43:43.231Z,16
2017-05-03T11:44:43.232Z,16
2017-05-03T11:45:43.237Z,16
2017-05-03T11:46:43.236Z,16
2017-05-03T11:47:43.233Z,16
2017-05-03T11:48:43.234Z,16
2017-05-03T11:49:43.231Z,16
2017-05-03T11:50:43.238Z,16
2017-05-03T11:51:43.232Z,16
2017-05-03T11:52:43.236Z,16
2017-05-03T11:53:43.231Z,16
2017-05-03T11:54:43.236Z,16
2017-05-03T11:55:43.234Z,16
2017-05-03T11:56:43.216Z,16
2017-05-03T11:57:43.170Z,16
2017-05-03T11:58:43.211Z,16
2017-05-03T11:59:43.205Z,16
2017-05-03T12:00:43.207Z,16
2017-05-03T12:01:43.164Z,16
2017-05-03T12:02:43.215Z,16
2017-05-03T12:03:43.171Z,16
2017-05-03T12:04:43.165Z,16
2017-05-03T12:05:43.166Z,16
2017-05-03T12:06:43.211Z,16
2017-05-03T12:07:43.210Z,16
2017-05-03T12:08:43.219Z,16
2017-05-03T12:09:43.218Z,16
2017-05-03T12:10:43.213Z,16
2017-05-03T12:11:43.216Z,16
2017-05-03T12:12:43.215Z,16
2017-05-03T12:13:43.176Z,16
2017-05-03T12:14:43.175Z,16
2017-05-03T12:15:43.185Z,16
2017-05-03T12:16:43.258Z,16
2017-05-03T12:17:43.260Z,16
2017-05-03T12:18:43.265Z,16
2017-05-03T12:19:43.263Z,16
2017-05-03T12:20:43.262Z,16
2017-05-03T12:21:43.261Z,16
2017-05-03T12:22:43.262Z,16
2017-05-03T12:23:43.262Z,16
2017-05-03T12:24:43.265Z,16
2017-05-03T12:25:43.277Z,16
2017-05-03T12:26:43.261Z,16
2017-05-03T12:27:43.283Z,16
2017-05-03T12:28:43.284Z,16
2017-05-03T12:29:43.267Z,16
2017-05-03T12:30:43.286Z,16
2017-05-03T12:31:43.281Z,16
2017-05-03T12:32:43.281Z,16
2017-05-03T12:33:43.308Z,16
2017-05-03T12:34:43.283Z,16
2017-05-03T12:35:43.392Z,16
2017-05-03T12:36:43.284Z,16
2017-05-03T12:37:43.283Z,16
2017-05-03T12:38:43.285Z,16
2017-05-03T12:39:43.308Z,16
2017-05-03T12:40:43.288Z,16
2017-05-03T12:41:43.288Z,16
2017-05-03T12:42:43.313Z,16
2017-05-03T12:43:43.294Z,16
2017-05-03T12:44:43.292Z,16
2017-05-03T12:45:43.342Z,16
2017-05-03T12:46:43.286Z,16
2017-05-03T12:47:43.278Z,16
2017-05-03T12:48:43.317Z,16
2017-05-03T12:49:43.311Z,16
2017-05-03T12:50:43.281Z,16
2017-05-03T12:51:43.307Z,16
2017-05-03T12:52:43.282Z,16
2017-05-03T12:53:43.281Z,16
2017-05-03T12:54:43.283Z,16
2017-05-03T12:55:43.280Z,16
2017-05-03T12:56:43.299Z,16
2017-05-03T12:57:43.394Z,16
2017-05-03T12:58:43.302Z,16
2017-05-03T12:59:43.303Z,16
2017-05-03T13:00:43.302Z,16
2017-05-03T13:01:43.300Z,16
2017-05-03T13:02:43.407Z,16
2017-05-03T13:03:43.306Z,16
2017-05-03T13:04:43.306Z,16
2017-05-03T13:05:43.304Z,16
2017-05-03T13:06:43.299Z,16
2017-05-03T13:07:43.281Z,16
2017-05-03T13:08:43.326Z,16
2017-05-03T13:09:43.305Z,16
2017-05-03T13:10:43.266Z,16
2017-05-03T13:11:43.302Z,16
2017-05-03T13:12:43.309Z,16
2017-05-03T13:13:43.304Z,16
2017-05-03T13:14:43.313Z,16
2017-05-03T13:15:43.301Z,16
2017-05-03T13:16:43.303Z,16
2017-05-03T13:17:43.305Z,16
2017-05-03T13:18:43.313Z,16
2017-05-03T13:19:43.305Z,16
2017-05-03T13:20:43.285Z,16
2017-05-03T13:21:43.292Z,16
2017-05-03T13:22:43.330Z,16
2017-05-03T13:23:43.448Z,16
2017-05-03T13:24:43.311Z,16
2017-05-03T13:25:43.418Z,16
2017-05-03T13:26:43.314Z,16
2017-05-03T13:27:43.413Z,16
2017-05-03T13:28:43.315Z,16
2017-05-03T13:29:43.282Z,16
2017-05-03T13:30:43.294Z,16
2017-05-03T13:31:43.306Z,16
2017-05-03T13:32:43.314Z,16
2017-05-03T13:33:43.419Z,16
2017-05-03T13:34:43.294Z,16
2017-05-03T13:35:43.316Z,16
2017-05-03T13:36:43.313Z,16
2017-05-03T13:37:43.211Z,16
2017-05-03T13:38:43.274Z,16
2017-05-03T13:39:43.209Z,16
2017-05-03T13:40:43.267Z,16
2017-05-03T13:41:43.303Z,16
2017-05-03T13:42:43.291Z,16
2017-05-03T13:43:43.257Z,16
2017-05-03T13:44:43.323Z,16
2017-05-03T13:45:43.223Z,16
2017-05-03T13:46:43.271Z,16
2017-05-03T13:47:43.352Z,16
2017-05-03T13:48:43.325Z,16
2017-05-03T13:49:43.398Z,16
2017-05-03T13:50:43.330Z,16
2017-05-03T13:51:43.332Z,16
2017-05-03T13:52:43.325Z,16
2017-05-03T13:53:43.325Z,16
2017-05-03T13:54:43.323Z,16
2017-05-03T13:55:43.430Z,16
2017-05-03T13:56:43.328Z,16
2017-05-03T13:57:43.319Z,16
2017-05-03T13:58:43.332Z,16
2017-05-03T13:59:43.336Z,16
2017-05-03T14:00:43.336Z,16
2017-05-03T14:01:43.333Z,16
2017-05-03T14:02:43.352Z,16
2017-05-03T14:03:43.311Z,16
2017-05-03T14:04:43.332Z,16